FKYSFGSL

Guest
Details From FKYS - YAOUNDE NSIMALEN
To FGSL - MALABO
Flight Number -
Tags generated
Created
Modified
Stats Distance 171 nm / 316 km
Max Altitude 18,300 ft / 5,578 m
Waypoints 4
Social Downloads 0
Likes 0
Share VATSIM

Download

Looking for another format? Having issues loading an existing format? Contact us
Advertisement - Login to hide

Notes

Basic altitude profile: - Ascent Rate: 2500ft/min - Ascent Speed: 250kts - Cruise Altitude: 35000ft - Cruise Speed: 420kts - Descent Rate: 1500ft/min - Descent Speed: 250kts Options: - Use NATs: yes - Use PACOTS: yes - Use low airways: yes - Use high airways: yes

Route

FKYS INODO R874 DE FGSL

ID Type Via Altitude Latitude Longitude Leg Dist Tot Dist Heading (true) Name
O FKYS APT - 0 ft / 0 m 3.72255˚ 11.55327˚ - 0 nm - YAOUNDE NSIMALEN
INODO FIX - 14,700 ft / 4,481 m 3.76000˚ 10.81667˚ 44 nm 44 nm 273° / 273° -
DE NDB R874 (AWY-LO) 18,300 ft / 5,578 m 3.79078˚ 10.13806˚ 40 nm 84 nm 273° / 273° EDEA NDB
O FGSL APT - 0 ft / 0 m 3.75527˚ 8.70872˚ 85 nm 170 nm 269° / 269° MALABO

Altitude Profile

Advertisement - Login to hide

Weather


0- 5 10 15 20 25 30 35+ Temperature / ° C

Clouds and Precipitation
Forecast for 2017-12-12 12:00 UTC. Updated 2 hours ago

Ground ~20,000 ft ~40,000 ft Winds

FKYS

Details ICAO FKYS (NSI)
Name YAOUNDE NSIMALEN
Region Cameroon
Timezone Africa/Douala (UTC+1.0)
Stats Elevation 2,278 ft / 694 m (AMSL)
Location 3.722554° 11.553270°
Runways 1
Magnetic Variation 0.691° W

METAR

FKYS 120800Z VRB01KT 2500 R19/1400N BR FEW003 BKN006 24/22 Q1018 BECMG 4000 BR

Decode

TAF

TAF FKYS 120500Z 1206/1306 VRB03KT 2000 BR BKN006 BECMG 1206/1208 4000 HZ SCT016 BECMG 1220/1222 2000 BR BKN006

Decode

Departure Runways

ID Width Length Bearing (true) Bearing (mag) Surface Threshold Offset Overrun Length
01 148 ft / 45 m 11,220 ft / 3,420 m 9.87° 10.56° Asphalt 0 ft / 0 m 200 ft / 61 m
19 148 ft / 45 m 11,220 ft / 3,420 m 189.87° 190.56° Asphalt 0 ft / 0 m 200 ft / 61 m

FGSL

Details ICAO FGSL (SSG)
Name MALABO
Region Equatorial Guinea
Timezone Africa/Malabo (UTC+1.0)
Stats Elevation 76 ft / 23 m (AMSL)
Location 3.755267° 8.708717°
Runways 1
Magnetic Variation 1.418° W

METAR

FGSL 120800Z 00000KT 8000 FEW012 28/23 Q1013 NOSIG

Decode

TAF

TAF FGSL 120500Z 1206/1312 24006KT 8000 SCT010 TEMPO 1206/1210 3000 BR TEMPO 1210/1221 4500 HZ PROB30 TEMPO 1302/1309 3000 BR

Decode

Destination Runways

ID Width Length Bearing (true) Bearing (mag) Surface Threshold Offset Overrun Length
05 151 ft / 46 m 9,642 ft / 2,939 m 41.72° 43.14° Concrete 0 ft / 0 m 0 ft / 0 m
23 151 ft / 46 m 9,642 ft / 2,939 m 221.72° 223.14° Concrete 0 ft / 0 m 161 ft / 49 m

Approach Navaids

Runway Type Ident Frequency Range Bearing (true) Bearing (mag) Slope Elevation
23 Localiser MBO 109.70 MHz 18 nm / 33 km 221.76° 223.18° - 76 ft / 23 m (AMSL)